Buckeye Lake, Ohio
Current Conditions -  °F | °C
As of 3:54 AM on Thursday 27 Nov 2014 (Local Time) from KVTA Reporting Station
Broken Clouds Broken Clouds  
Wind Chill: 25°   Ceiling: 3600
Heat Index: 31°   Visibility: 10mi
Dew Point: 24°   Wind: 6mph
Humidity: 76%   Direction: 330°NNW
Pressure: 30.03"   Gusts: NA
Location:  39.93°N, 82.47°W
Report Text: KVTA 270854Z AUTO 33005KT 10SM BKN036 M01/M04 A3003 RMK AO2 SLP176 T10061044 53001
Loading
Personal Weather Stations






























Interactive Weather Map New forecast layout! Learn more

10-Day Weather Forecast

Advertisements
Track Severe Weather on mobile